CFG37T EDDN-EDXW
Flight info
| Callsign | CFG37T |
|---|---|
| Flight time | 1h 2m |
| Altitude | 38000 |
| Route | ERETO1G/28 ERETO DCT LONLI M726 LASTO DCT ZUCKA DCT ELSOB/N0450F370 Y348 OMWEG DCT BADOS DCT OLDIP |
| Aircraft | A321/M-SDE3FGHIRWY/LB1 |
Departure
| Time | 2026-04-14 16:25 |
|---|---|
| Airport | Nuremberg Airport (EDDN) |
Arrival
| Time | 2026-04-14 17:28 |
|---|---|
| Airport | Westerland Sylt Airport (EDXW) |
| Time | Latitude | Longitude | Altitude | Speed | Heading |
|---|---|---|---|---|---|
| 2026-04-14 15:53 | 49.49517 | 11.07791 | 1025 ft | 0 kts | 188° |
| 2026-04-14 16:15 | 49.49529 | 11.07793 | 1028 ft | 2 kts | 186° |
| 2026-04-14 16:16 | 49.49545 | 11.07796 | 1029 ft | 2 kts | 184° |
| 2026-04-14 16:16 | 49.49561 | 11.07797 | 1027 ft | 2 kts | 176° |
| 2026-04-14 16:16 | 49.49578 | 11.07793 | 1030 ft | 2 kts | 139° |
| 2026-04-14 16:16 | 49.49585 | 11.07775 | 1030 ft | 1 kts | 99° |
| 2026-04-14 16:17 | 49.49586 | 11.07771 | 1030 ft | 0 kts | 98° |
| 2026-04-14 16:19 | 49.49585 | 11.07785 | 1030 ft | 5 kts | 98° |
| 2026-04-14 16:19 | 49.49575 | 11.07881 | 1030 ft | 10 kts | 98° |
| 2026-04-14 16:19 | 49.49565 | 11.07986 | 1030 ft | 9 kts | 98° |
| 2026-04-14 16:19 | 49.49555 | 11.08088 | 1030 ft | 12 kts | 99° |
| 2026-04-14 16:20 | 49.49542 | 11.08217 | 1028 ft | 11 kts | 98° |
| 2026-04-14 16:20 | 49.49536 | 11.08318 | 1032 ft | 7 kts | 78° |
| 2026-04-14 16:20 | 49.49580 | 11.08362 | 1032 ft | 13 kts | 17° |
| 2026-04-14 16:20 | 49.49608 | 11.08524 | 1033 ft | 19 kts | 98° |
| 2026-04-14 16:21 | 49.49589 | 11.08712 | 1034 ft | 18 kts | 98° |
| 2026-04-14 16:21 | 49.49566 | 11.08951 | 1037 ft | 24 kts | 99° |
| 2026-04-14 16:21 | 49.49541 | 11.09196 | 1039 ft | 22 kts | 98° |
| 2026-04-14 16:21 | 49.49533 | 11.09320 | 1041 ft | 7 kts | 88° |
| 2026-04-14 16:22 | 49.49544 | 11.09379 | 1042 ft | 5 kts | 62° |
| 2026-04-14 16:22 | 49.49559 | 11.09414 | 1042 ft | 3 kts | 56° |
| 2026-04-14 16:22 | 49.49570 | 11.09438 | 1042 ft | 2 kts | 55° |
| 2026-04-14 16:22 | 49.49572 | 11.09444 | 1042 ft | 0 kts | 55° |
| 2026-04-14 16:23 | 49.49582 | 11.09464 | 1042 ft | 3 kts | 54° |
| 2026-04-14 16:23 | 49.49594 | 11.09489 | 1042 ft | 2 kts | 52° |
| 2026-04-14 16:23 | 49.49599 | 11.09500 | 1042 ft | 0 kts | 52° |
| 2026-04-14 16:23 | 49.49605 | 11.09511 | 1043 ft | 6 kts | 52° |
| 2026-04-14 16:24 | 49.49656 | 11.09566 | 1045 ft | 9 kts | 5° |
| 2026-04-14 16:24 | 49.49699 | 11.09510 | 1044 ft | 9 kts | 292° |
| 2026-04-14 16:24 | 49.49705 | 11.09471 | 1043 ft | 0 kts | 280° |
| 2026-04-14 16:24 | 49.49705 | 11.09470 | 1043 ft | 1 kts | 280° |
| 2026-04-14 16:25 | 49.49719 | 11.09341 | 1042 ft | 41 kts | 279° |
| 2026-04-14 16:25 | 49.49800 | 11.08516 | 1026 ft | 111 kts | 278° |
| 2026-04-14 16:25 | 49.49955 | 11.07078 | 1100 ft | 152 kts | 275° |
| 2026-04-14 16:25 | 49.50086 | 11.05565 | 1859 ft | 137 kts | 280° |
| 2026-04-14 16:26 | 49.50222 | 11.04101 | 2390 ft | 143 kts | 283° |
| 2026-04-14 16:26 | 49.50389 | 11.02535 | 2837 ft | 151 kts | 283° |
| 2026-04-14 16:26 | 49.50562 | 11.00859 | 3114 ft | 168 kts | 282° |
| 2026-04-14 16:26 | 49.50749 | 10.98972 | 3301 ft | 187 kts | 281° |
| 2026-04-14 16:27 | 49.50947 | 10.96938 | 3562 ft | 197 kts | 281° |
| 2026-04-14 16:27 | 49.51180 | 10.94815 | 3797 ft | 206 kts | 288° |
| 2026-04-14 16:27 | 49.52023 | 10.93001 | 4024 ft | 219 kts | 329° |
| 2026-04-14 16:27 | 49.53523 | 10.92396 | 4303 ft | 235 kts | 359° |
| 2026-04-14 16:28 | 49.55218 | 10.92388 | 4569 ft | 251 kts | 1° |
| 2026-04-14 16:28 | 49.56987 | 10.92461 | 4823 ft | 258 kts | 2° |
| 2026-04-14 16:28 | 49.58775 | 10.92554 | 5354 ft | 261 kts | 2° |
| 2026-04-14 16:28 | 49.60604 | 10.92641 | 5884 ft | 264 kts | 1° |
| 2026-04-14 16:29 | 49.62447 | 10.92714 | 6391 ft | 267 kts | 1° |
| 2026-04-14 16:29 | 49.64277 | 10.93215 | 6854 ft | 270 kts | 21° |
| 2026-04-14 16:29 | 49.66018 | 10.94361 | 7289 ft | 274 kts | 23° |
| 2026-04-14 16:29 | 49.67772 | 10.95547 | 7740 ft | 277 kts | 22° |
| 2026-04-14 16:30 | 49.69546 | 10.96750 | 8186 ft | 280 kts | 22° |
| 2026-04-14 16:30 | 49.71336 | 10.97965 | 8617 ft | 283 kts | 22° |
| 2026-04-14 16:30 | 49.73145 | 10.99196 | 9053 ft | 286 kts | 22° |
| 2026-04-14 16:30 | 49.74975 | 11.00440 | 9469 ft | 289 kts | 22° |
| 2026-04-14 16:31 | 49.76824 | 11.01698 | 9899 ft | 292 kts | 22° |
| 2026-04-14 16:31 | 49.78689 | 11.02967 | 10279 ft | 295 kts | 22° |
| 2026-04-14 16:31 | 49.80612 | 11.04271 | 10407 ft | 307 kts | 22° |
| 2026-04-14 16:31 | 49.82603 | 11.05623 | 10523 ft | 317 kts | 22° |
| 2026-04-14 16:32 | 49.84649 | 11.07015 | 10644 ft | 325 kts | 22° |
| 2026-04-14 16:32 | 49.86736 | 11.08434 | 10829 ft | 330 kts | 22° |
| 2026-04-14 16:32 | 49.88842 | 11.09866 | 11084 ft | 331 kts | 23° |
| 2026-04-14 16:32 | 49.90952 | 11.11303 | 11356 ft | 332 kts | 22° |
| 2026-04-14 16:33 | 49.93075 | 11.12752 | 11600 ft | 334 kts | 22° |
| 2026-04-14 16:33 | 49.95210 | 11.14209 | 11817 ft | 335 kts | 23° |
| 2026-04-14 16:33 | 49.97327 | 11.15655 | 12190 ft | 333 kts | 22° |
| 2026-04-14 16:33 | 49.99435 | 11.17097 | 12598 ft | 329 kts | 22° |
| 2026-04-14 16:34 | 50.01523 | 11.18531 | 12945 ft | 328 kts | 22° |
| 2026-04-14 16:34 | 50.03616 | 11.19974 | 13236 ft | 329 kts | 22° |
| 2026-04-14 16:34 | 50.05719 | 11.21399 | 13519 ft | 330 kts | 19° |
| 2026-04-14 16:34 | 50.07927 | 11.22364 | 13791 ft | 330 kts | 8° |
| 2026-04-14 16:35 | 50.10208 | 11.22668 | 14049 ft | 329 kts | 358° |
| 2026-04-14 16:35 | 50.12505 | 11.22663 | 14280 ft | 331 kts | 358° |
| 2026-04-14 16:35 | 50.14808 | 11.22669 | 14502 ft | 332 kts | 358° |
| 2026-04-14 16:35 | 50.17094 | 11.22683 | 14725 ft | 334 kts | 358° |
| 2026-04-14 16:36 | 50.19424 | 11.22699 | 14939 ft | 335 kts | 358° |
| 2026-04-14 16:36 | 50.21766 | 11.22714 | 15090 ft | 339 kts | 358° |
| 2026-04-14 16:36 | 50.24142 | 11.22730 | 15222 ft | 342 kts | 359° |
| 2026-04-14 16:36 | 50.26534 | 11.22745 | 15389 ft | 344 kts | 358° |
| 2026-04-14 16:37 | 50.28934 | 11.22762 | 15588 ft | 346 kts | 359° |
| 2026-04-14 16:37 | 50.31345 | 11.22778 | 15773 ft | 347 kts | 359° |
| 2026-04-14 16:37 | 50.33762 | 11.22792 | 15950 ft | 348 kts | 358° |
| 2026-04-14 16:37 | 50.36187 | 11.22772 | 16120 ft | 349 kts | 355° |
| 2026-04-14 16:38 | 50.38602 | 11.22426 | 16278 ft | 349 kts | 352° |
| 2026-04-14 16:38 | 50.41031 | 11.22055 | 16417 ft | 351 kts | 352° |
| 2026-04-14 16:38 | 50.43412 | 11.21694 | 16652 ft | 331 kts | 352° |
| 2026-04-14 16:38 | 50.45598 | 11.21372 | 16654 ft | 301 kts | 352° |
| 2026-04-14 16:39 | 50.47607 | 11.21078 | 16634 ft | 282 kts | 352° |
| 2026-04-14 16:39 | 50.49555 | 11.20784 | 16665 ft | 293 kts | 352° |
| 2026-04-14 16:39 | 50.51663 | 11.20457 | 16815 ft | 316 kts | 352° |
| 2026-04-14 16:39 | 50.53923 | 11.20104 | 16957 ft | 337 kts | 352° |
| 2026-04-14 16:40 | 50.56327 | 11.19733 | 17090 ft | 357 kts | 352° |
| 2026-04-14 16:40 | 50.58847 | 11.19347 | 17446 ft | 368 kts | 353° |
| 2026-04-14 16:40 | 50.61414 | 11.18960 | 18014 ft | 374 kts | 352° |
| 2026-04-14 16:40 | 50.64018 | 11.18570 | 18612 ft | 378 kts | 353° |
| 2026-04-14 16:41 | 50.66648 | 11.18176 | 19153 ft | 381 kts | 353° |
| 2026-04-14 16:41 | 50.69304 | 11.17775 | 19702 ft | 385 kts | 352° |
| 2026-04-14 16:41 | 50.71976 | 11.17370 | 20250 ft | 388 kts | 352° |
| 2026-04-14 16:41 | 50.74676 | 11.16959 | 20793 ft | 391 kts | 352° |
| 2026-04-14 16:42 | 50.77394 | 11.16542 | 21326 ft | 394 kts | 352° |
| 2026-04-14 16:42 | 50.80134 | 11.16120 | 21861 ft | 397 kts | 352° |
| 2026-04-14 16:42 | 50.82896 | 11.15697 | 22392 ft | 400 kts | 352° |
| 2026-04-14 16:42 | 50.85683 | 11.15271 | 22899 ft | 404 kts | 352° |
| 2026-04-14 16:43 | 50.88487 | 11.14843 | 23405 ft | 407 kts | 352° |
| 2026-04-14 16:43 | 50.91316 | 11.14407 | 23881 ft | 410 kts | 352° |
| 2026-04-14 16:43 | 50.94166 | 11.13965 | 24304 ft | 413 kts | 352° |
| 2026-04-14 16:43 | 50.97031 | 11.13520 | 24728 ft | 415 kts | 352° |
| 2026-04-14 16:44 | 50.99913 | 11.13077 | 25150 ft | 417 kts | 352° |
| 2026-04-14 16:44 | 51.02811 | 11.12630 | 25576 ft | 419 kts | 352° |
| 2026-04-14 16:44 | 51.05730 | 11.12176 | 26001 ft | 422 kts | 352° |
| 2026-04-14 16:45 | 51.11611 | 11.11261 | 26814 ft | 427 kts | 351° |
| 2026-04-14 16:45 | 51.14532 | 11.10451 | 27203 ft | 426 kts | 343° |
| 2026-04-14 16:45 | 51.17417 | 11.09330 | 27605 ft | 428 kts | 343° |
| 2026-04-14 16:45 | 51.20321 | 11.08194 | 27999 ft | 431 kts | 343° |
| 2026-04-14 16:46 | 51.23238 | 11.07046 | 28393 ft | 433 kts | 343° |
| 2026-04-14 16:46 | 51.26175 | 11.05894 | 28781 ft | 435 kts | 343° |
| 2026-04-14 16:46 | 51.29125 | 11.04739 | 29166 ft | 438 kts | 343° |
| 2026-04-14 16:46 | 51.32088 | 11.03580 | 29524 ft | 440 kts | 344° |
| 2026-04-14 16:47 | 51.35063 | 11.02417 | 29984 ft | 440 kts | 344° |
| 2026-04-14 16:47 | 51.38036 | 11.01252 | 30343 ft | 441 kts | 344° |
| 2026-04-14 16:47 | 51.41024 | 11.00077 | 30651 ft | 442 kts | 344° |
| 2026-04-14 16:47 | 51.43982 | 10.98912 | 30968 ft | 444 kts | 344° |
| 2026-04-14 16:48 | 51.46986 | 10.97732 | 31293 ft | 445 kts | 344° |
| 2026-04-14 16:48 | 51.50000 | 10.96553 | 31619 ft | 446 kts | 344° |
| 2026-04-14 16:48 | 51.53009 | 10.95372 | 32086 ft | 444 kts | 344° |
| 2026-04-14 16:48 | 51.56003 | 10.94193 | 32561 ft | 442 kts | 344° |
| 2026-04-14 16:49 | 51.58983 | 10.93014 | 33023 ft | 440 kts | 344° |
| 2026-04-14 16:49 | 51.61949 | 10.91834 | 33485 ft | 438 kts | 343° |
| 2026-04-14 16:49 | 51.64897 | 10.90658 | 33944 ft | 436 kts | 343° |
| 2026-04-14 16:49 | 51.67815 | 10.89365 | 34365 ft | 433 kts | 338° |
| 2026-04-14 16:50 | 51.70614 | 10.87622 | 34683 ft | 431 kts | 336° |
| 2026-04-14 16:50 | 51.73407 | 10.85843 | 34973 ft | 432 kts | 336° |
| 2026-04-14 16:50 | 51.76201 | 10.84062 | 35252 ft | 432 kts | 336° |
| 2026-04-14 16:50 | 51.78999 | 10.82277 | 35532 ft | 432 kts | 336° |
| 2026-04-14 16:51 | 51.81803 | 10.80488 | 35794 ft | 433 kts | 336° |
| 2026-04-14 16:51 | 51.84604 | 10.78701 | 36057 ft | 433 kts | 336° |
| 2026-04-14 16:51 | 51.87410 | 10.76907 | 36314 ft | 434 kts | 336° |
| 2026-04-14 16:51 | 51.90213 | 10.75112 | 36632 ft | 433 kts | 336° |
| 2026-04-14 16:52 | 51.93009 | 10.73320 | 36917 ft | 432 kts | 336° |
| 2026-04-14 16:52 | 51.95804 | 10.71524 | 37169 ft | 432 kts | 336° |
| 2026-04-14 16:52 | 51.98599 | 10.69721 | 37391 ft | 432 kts | 336° |
| 2026-04-14 16:52 | 52.01395 | 10.67913 | 37620 ft | 433 kts | 336° |
| 2026-04-14 16:53 | 52.04191 | 10.66105 | 37865 ft | 433 kts | 336° |
| 2026-04-14 16:53 | 52.06991 | 10.64295 | 38078 ft | 433 kts | 336° |
| 2026-04-14 16:53 | 52.09801 | 10.62483 | 38195 ft | 434 kts | 336° |
| 2026-04-14 16:53 | 52.12606 | 10.60676 | 38211 ft | 434 kts | 336° |
| 2026-04-14 16:54 | 52.18213 | 10.57051 | 38217 ft | 433 kts | 336° |
| 2026-04-14 16:54 | 52.23812 | 10.53399 | 38220 ft | 433 kts | 336° |
| 2026-04-14 16:55 | 52.29413 | 10.49741 | 38220 ft | 433 kts | 336° |
| 2026-04-14 16:55 | 52.34984 | 10.46102 | 38219 ft | 434 kts | 336° |
| 2026-04-14 16:56 | 52.40586 | 10.42432 | 38234 ft | 433 kts | 336° |
| 2026-04-14 16:56 | 52.46187 | 10.38790 | 38234 ft | 432 kts | 336° |
| 2026-04-14 16:57 | 52.51809 | 10.35283 | 38228 ft | 432 kts | 337° |
| 2026-04-14 16:57 | 52.57430 | 10.31794 | 38236 ft | 432 kts | 336° |
| 2026-04-14 16:58 | 52.63042 | 10.28279 | 38238 ft | 432 kts | 336° |
| 2026-04-14 16:58 | 52.68659 | 10.24730 | 38233 ft | 432 kts | 336° |
| 2026-04-14 16:59 | 52.74274 | 10.21162 | 38230 ft | 432 kts | 336° |
| 2026-04-14 16:59 | 52.79882 | 10.17588 | 38233 ft | 432 kts | 336° |
| 2026-04-14 17:00 | 52.85501 | 10.14010 | 38240 ft | 432 kts | 336° |
| 2026-04-14 17:00 | 52.91073 | 10.10456 | 38245 ft | 432 kts | 336° |
| 2026-04-14 17:01 | 52.95762 | 10.07459 | 38248 ft | 431 kts | 336° |
| 2026-04-14 17:01 | 53.02252 | 10.03279 | 38242 ft | 430 kts | 336° |
| 2026-04-14 17:02 | 53.07720 | 9.99345 | 37569 ft | 426 kts | 332° |
| 2026-04-14 17:02 | 53.10378 | 9.97179 | 36993 ft | 425 kts | 331° |
| 2026-04-14 17:02 | 53.13009 | 9.94967 | 36480 ft | 424 kts | 330° |
| 2026-04-14 17:03 | 53.14786 | 9.93467 | 36141 ft | 423 kts | 331° |
| 2026-04-14 17:03 | 53.17412 | 9.91270 | 35645 ft | 422 kts | 331° |
| 2026-04-14 17:03 | 53.20044 | 9.89102 | 35159 ft | 421 kts | 332° |
| 2026-04-14 17:03 | 53.22675 | 9.86965 | 34674 ft | 421 kts | 332° |
| 2026-04-14 17:04 | 53.25280 | 9.84869 | 34226 ft | 420 kts | 332° |
| 2026-04-14 17:04 | 53.27947 | 9.82733 | 33665 ft | 419 kts | 332° |
| 2026-04-14 17:04 | 53.30533 | 9.80657 | 33129 ft | 416 kts | 332° |
| 2026-04-14 17:04 | 53.33129 | 9.78557 | 32600 ft | 413 kts | 332° |
| 2026-04-14 17:05 | 53.35704 | 9.76459 | 32088 ft | 409 kts | 332° |
| 2026-04-14 17:05 | 53.38248 | 9.74380 | 31577 ft | 405 kts | 332° |
| 2026-04-14 17:05 | 53.40768 | 9.72321 | 31065 ft | 401 kts | 332° |
| 2026-04-14 17:05 | 53.43262 | 9.70283 | 30591 ft | 397 kts | 332° |
| 2026-04-14 17:06 | 53.45735 | 9.68262 | 30065 ft | 393 kts | 332° |
| 2026-04-14 17:06 | 53.48183 | 9.66264 | 29491 ft | 390 kts | 332° |
| 2026-04-14 17:06 | 53.50613 | 9.64282 | 28926 ft | 386 kts | 331° |
| 2026-04-14 17:06 | 53.53023 | 9.62315 | 28378 ft | 383 kts | 331° |
| 2026-04-14 17:07 | 53.55405 | 9.60365 | 27842 ft | 380 kts | 331° |
| 2026-04-14 17:07 | 53.57774 | 9.58419 | 27326 ft | 377 kts | 331° |
| 2026-04-14 17:07 | 53.60126 | 9.56480 | 26853 ft | 375 kts | 330° |
| 2026-04-14 17:07 | 53.62460 | 9.54549 | 26419 ft | 373 kts | 330° |
| 2026-04-14 17:08 | 53.64785 | 9.52624 | 25964 ft | 372 kts | 330° |
| 2026-04-14 17:08 | 53.67105 | 9.50702 | 25517 ft | 371 kts | 330° |
| 2026-04-14 17:08 | 53.69414 | 9.48787 | 25079 ft | 369 kts | 330° |
| 2026-04-14 17:08 | 53.71717 | 9.46873 | 24643 ft | 368 kts | 329° |
| 2026-04-14 17:09 | 53.74009 | 9.44971 | 24221 ft | 367 kts | 329° |
| 2026-04-14 17:09 | 53.76296 | 9.43074 | 23793 ft | 366 kts | 329° |
| 2026-04-14 17:09 | 53.78574 | 9.41181 | 23255 ft | 364 kts | 329° |
| 2026-04-14 17:09 | 53.80841 | 9.39291 | 22695 ft | 362 kts | 329° |
| 2026-04-14 17:10 | 53.83100 | 9.37410 | 22161 ft | 361 kts | 329° |
| 2026-04-14 17:10 | 53.85318 | 9.35556 | 21632 ft | 360 kts | 329° |
| 2026-04-14 17:10 | 53.87579 | 9.33669 | 21213 ft | 356 kts | 329° |
| 2026-04-14 17:10 | 53.89790 | 9.31823 | 20820 ft | 352 kts | 329° |
| 2026-04-14 17:11 | 53.91946 | 9.30018 | 20420 ft | 349 kts | 329° |
| 2026-04-14 17:11 | 53.94116 | 9.28203 | 20023 ft | 346 kts | 329° |
| 2026-04-14 17:11 | 53.96264 | 9.26406 | 19627 ft | 343 kts | 329° |
| 2026-04-14 17:11 | 53.98393 | 9.24621 | 19238 ft | 340 kts | 328° |
| 2026-04-14 17:12 | 54.00505 | 9.22847 | 18847 ft | 338 kts | 328° |
| 2026-04-14 17:12 | 54.02599 | 9.21078 | 18461 ft | 335 kts | 328° |
| 2026-04-14 17:12 | 54.04683 | 9.19314 | 18025 ft | 333 kts | 328° |
| 2026-04-14 17:12 | 54.06751 | 9.17566 | 17606 ft | 331 kts | 328° |
| 2026-04-14 17:13 | 54.08803 | 9.15833 | 17175 ft | 328 kts | 328° |
| 2026-04-14 17:13 | 54.10838 | 9.14111 | 16751 ft | 325 kts | 328° |
| 2026-04-14 17:13 | 54.12856 | 9.12397 | 16337 ft | 323 kts | 328° |
| 2026-04-14 17:13 | 54.14858 | 9.10695 | 15933 ft | 320 kts | 328° |
| 2026-04-14 17:14 | 54.16847 | 9.09005 | 15524 ft | 318 kts | 328° |
| 2026-04-14 17:14 | 54.18820 | 9.07327 | 15121 ft | 315 kts | 328° |
| 2026-04-14 17:14 | 54.20770 | 9.05669 | 14727 ft | 312 kts | 328° |
| 2026-04-14 17:14 | 54.22704 | 9.04024 | 14342 ft | 309 kts | 328° |
| 2026-04-14 17:15 | 54.24617 | 9.02396 | 13952 ft | 306 kts | 328° |
| 2026-04-14 17:15 | 54.26513 | 9.00782 | 13510 ft | 303 kts | 328° |
| 2026-04-14 17:15 | 54.28393 | 8.99174 | 13096 ft | 301 kts | 328° |
| 2026-04-14 17:15 | 54.30261 | 8.97570 | 12669 ft | 300 kts | 328° |
| 2026-04-14 17:16 | 54.32119 | 8.95977 | 12251 ft | 298 kts | 329° |
| 2026-04-14 17:16 | 54.33973 | 8.94394 | 11846 ft | 297 kts | 329° |
| 2026-04-14 17:16 | 54.35818 | 8.92814 | 11437 ft | 296 kts | 329° |
| 2026-04-14 17:16 | 54.37655 | 8.91237 | 11027 ft | 295 kts | 329° |
| 2026-04-14 17:17 | 54.39486 | 8.89661 | 10650 ft | 293 kts | 329° |
| 2026-04-14 17:17 | 54.41298 | 8.88097 | 10292 ft | 290 kts | 329° |
| 2026-04-14 17:17 | 54.43088 | 8.86554 | 9923 ft | 287 kts | 329° |
| 2026-04-14 17:17 | 54.44865 | 8.85020 | 9510 ft | 284 kts | 329° |
| 2026-04-14 17:18 | 54.46625 | 8.83495 | 9108 ft | 282 kts | 329° |
| 2026-04-14 17:18 | 54.48363 | 8.81991 | 8705 ft | 276 kts | 329° |
| 2026-04-14 17:18 | 54.50052 | 8.80536 | 8316 ft | 268 kts | 329° |
| 2026-04-14 17:18 | 54.51705 | 8.79110 | 7929 ft | 265 kts | 329° |
| 2026-04-14 17:19 | 54.53349 | 8.77688 | 7549 ft | 263 kts | 329° |
| 2026-04-14 17:19 | 54.54982 | 8.76275 | 7172 ft | 262 kts | 329° |
| 2026-04-14 17:19 | 54.56610 | 8.74865 | 6790 ft | 262 kts | 329° |
| 2026-04-14 17:19 | 54.58234 | 8.73453 | 6401 ft | 261 kts | 329° |
| 2026-04-14 17:20 | 54.59848 | 8.72048 | 6004 ft | 259 kts | 329° |
| 2026-04-14 17:20 | 54.61449 | 8.70647 | 5607 ft | 257 kts | 328° |
| 2026-04-14 17:20 | 54.62925 | 8.68962 | 5225 ft | 254 kts | 322° |
| 2026-04-14 17:20 | 54.64354 | 8.67226 | 4909 ft | 247 kts | 322° |
| 2026-04-14 17:21 | 54.65738 | 8.65546 | 4643 ft | 241 kts | 322° |
| 2026-04-14 17:21 | 54.67081 | 8.63913 | 4373 ft | 229 kts | 322° |
| 2026-04-14 17:21 | 54.68346 | 8.62373 | 4110 ft | 217 kts | 321° |
| 2026-04-14 17:21 | 54.69536 | 8.60923 | 3875 ft | 202 kts | 321° |
| 2026-04-14 17:22 | 54.70660 | 8.59546 | 3632 ft | 195 kts | 321° |
| 2026-04-14 17:22 | 54.71729 | 8.58225 | 3400 ft | 188 kts | 321° |
| 2026-04-14 17:22 | 54.72785 | 8.56903 | 3137 ft | 187 kts | 321° |
| 2026-04-14 17:22 | 54.73839 | 8.55601 | 3014 ft | 186 kts | 321° |
| 2026-04-14 17:23 | 54.74891 | 8.54307 | 3003 ft | 186 kts | 321° |
| 2026-04-14 17:23 | 54.75946 | 8.53012 | 3004 ft | 186 kts | 321° |
| 2026-04-14 17:23 | 54.76990 | 8.51731 | 2998 ft | 177 kts | 321° |
| 2026-04-14 17:23 | 54.77967 | 8.50532 | 2983 ft | 170 kts | 321° |
| 2026-04-14 17:24 | 54.78923 | 8.49356 | 2862 ft | 166 kts | 321° |
| 2026-04-14 17:24 | 54.79866 | 8.48197 | 2656 ft | 165 kts | 321° |
| 2026-04-14 17:24 | 54.80781 | 8.47071 | 2438 ft | 156 kts | 321° |
| 2026-04-14 17:24 | 54.81643 | 8.46010 | 2231 ft | 147 kts | 321° |
| 2026-04-14 17:25 | 54.82439 | 8.45030 | 2036 ft | 136 kts | 320° |
| 2026-04-14 17:25 | 54.83198 | 8.44095 | 1852 ft | 132 kts | 320° |
| 2026-04-14 17:25 | 54.83942 | 8.43176 | 1677 ft | 131 kts | 320° |
| 2026-04-14 17:25 | 54.84681 | 8.42264 | 1484 ft | 130 kts | 321° |
| 2026-04-14 17:26 | 54.85420 | 8.41350 | 1310 ft | 130 kts | 321° |
| 2026-04-14 17:26 | 54.86159 | 8.40438 | 1126 ft | 130 kts | 321° |
| 2026-04-14 17:26 | 54.86897 | 8.39526 | 939 ft | 130 kts | 320° |
| 2026-04-14 17:26 | 54.87638 | 8.38610 | 752 ft | 131 kts | 321° |
| 2026-04-14 17:27 | 54.88377 | 8.37697 | 578 ft | 130 kts | 322° |
| 2026-04-14 17:27 | 54.89112 | 8.36787 | 398 ft | 130 kts | 322° |
| 2026-04-14 17:27 | 54.89840 | 8.35877 | 217 ft | 129 kts | 320° |
| 2026-04-14 17:27 | 54.90571 | 8.34986 | 40 ft | 127 kts | 322° |
| 2026-04-14 17:28 | 54.91146 | 8.34267 | 37 ft | 63 kts | 324° |
| 2026-04-14 17:28 | 54.91428 | 8.33917 | 36 ft | 47 kts | 324° |
| 2026-04-14 17:28 | 54.91685 | 8.33596 | 36 ft | 44 kts | 324° |
| 2026-04-14 17:28 | 54.91873 | 8.33356 | 35 ft | 19 kts | 311° |
| 2026-04-14 17:29 | 54.91831 | 8.33206 | 35 ft | 16 kts | 202° |
| 2026-04-14 17:29 | 54.91766 | 8.33177 | 35 ft | 0 kts | 184° |
| 2026-04-14 17:29 | 54.91723 | 8.33176 | 35 ft | 14 kts | 180° |
| 2026-04-14 17:30 | 54.91581 | 8.33177 | 34 ft | 25 kts | 180° |
| 2026-04-14 17:30 | 54.91470 | 8.33188 | 29 ft | 14 kts | 161° |
| 2026-04-14 17:30 | 54.91388 | 8.33249 | 29 ft | 7 kts | 172° |
| 2026-04-14 17:30 | 54.91354 | 8.33218 | 29 ft | 5 kts | 245° |
| 2026-04-14 17:31 | 54.91350 | 8.33153 | 29 ft | 6 kts | 268° |
| 2026-04-14 17:31 | 54.91351 | 8.33126 | 29 ft | 0 kts | 271° |